Weather at Rotterdam The Hague Airport

Public forecast

Using degrees Celsius for public forecast. Weather courtesy of forecast.io.

Current aviation weather report (METAR) for Rotterdam The Hague Airport

Retrieved 2020/11/28 13:25 UTC (0 seconds ago):

EHRD 281325Z AUTO 08008KT 9999 NSC 08/05 Q1020 NOSIG

Aviation forecast (TAF) for Rotterdam The Hague Airport

Retrieved 2020/11/28 12:27 UTC (42 minutes ago):

TAF EHRD 281111Z 2812/2918 08007KT 9000 NSC BECMG 2816/2819 3000 BR BKN004 PROB30 2819/2907 1800 BKN002 BECMG 2907/2910 6000 NSW SCT010 BECMG 2910/2913 CAVOK